<?xml version="1.0" encoding="UTF-8" standalone="no" ?>
<gpx xmlns="http://www.topografix.com/GPX/1/1" xmlns:xsi="http://www.w3.org/2001/XMLSchema-instance" xsi:schemaLocation="http://www.topografix.com/GPX/1/1 http://www.topografix.com/GPX/1/1/gpx.xsd" version="1.1" creator="VisuGPX - https://www.visugpx.com">
  <metadata>
    <name>Puymirol 6,4 km</name>
  </metadata>
  <trk>
    <name><![CDATA[Puymirol 8]]></name>
    <extensions>
      <line xmlns="http://www.topografix.com/GPX/gpx_style/0/2">
        <color>0000FF</color>
        <width>4</width>
      </line>
    </extensions>
    <trkseg>
      <trkpt lat="44.18689" lon="0.79601">
        <ele>160.1</ele>
        <time>2024-03-13T15:09:37+01:00</time>
      </trkpt>
      <trkpt lat="44.187" lon="0.79599">
        <ele>160.4</ele>
        <time>2024-03-13T15:09:52+01:00</time>
      </trkpt>
      <trkpt lat="44.18702" lon="0.79625">
        <ele>160</ele>
        <time>2024-03-13T15:14:52+01:00</time>
      </trkpt>
      <trkpt lat="44.18702" lon="0.79668">
        <ele>159</ele>
        <time>2024-03-13T15:16:38+01:00</time>
      </trkpt>
      <trkpt lat="44.18704" lon="0.79682">
        <ele>159</ele>
        <time>2024-03-13T15:16:48+01:00</time>
      </trkpt>
      <trkpt lat="44.18704" lon="0.79699">
        <ele>158.9</ele>
        <time>2024-03-13T15:16:58+01:00</time>
      </trkpt>
      <trkpt lat="44.18707" lon="0.79735">
        <ele>158.6</ele>
        <time>2024-03-13T15:17:18+01:00</time>
      </trkpt>
      <trkpt lat="44.18707" lon="0.79755">
        <ele>158.4</ele>
        <time>2024-03-13T15:17:28+01:00</time>
      </trkpt>
      <trkpt lat="44.18713" lon="0.79861">
        <ele>158</ele>
        <time>2024-03-13T15:18:27+01:00</time>
      </trkpt>
      <trkpt lat="44.18717" lon="0.79894">
        <ele>158.8</ele>
        <time>2024-03-13T15:18:47+01:00</time>
      </trkpt>
      <trkpt lat="44.18715" lon="0.79907">
        <ele>158.7</ele>
        <time>2024-03-13T15:18:57+01:00</time>
      </trkpt>
      <trkpt lat="44.18717" lon="0.79925">
        <ele>158.9</ele>
        <time>2024-03-13T15:19:07+01:00</time>
      </trkpt>
      <trkpt lat="44.18719" lon="0.79963">
        <ele>159</ele>
        <time>2024-03-13T15:19:26+01:00</time>
      </trkpt>
      <trkpt lat="44.18718" lon="0.79976">
        <ele>159</ele>
      </trkpt>
      <trkpt lat="44.18709" lon="0.80028">
        <ele>158.5</ele>
        <time>2024-03-13T15:23:18+01:00</time>
      </trkpt>
      <trkpt lat="44.18692" lon="0.80084">
        <ele>153.3</ele>
        <time>2024-03-13T15:23:56+01:00</time>
      </trkpt>
      <trkpt lat="44.18689" lon="0.80097">
        <ele>151.7</ele>
        <time>2024-03-13T15:24:06+01:00</time>
      </trkpt>
      <trkpt lat="44.18688" lon="0.80114">
        <ele>150.1</ele>
        <time>2024-03-13T15:24:15+01:00</time>
      </trkpt>
      <trkpt lat="44.18691" lon="0.80131">
        <ele>149.1</ele>
        <time>2024-03-13T15:24:25+01:00</time>
      </trkpt>
      <trkpt lat="44.18698" lon="0.80149">
        <ele>148</ele>
        <time>2024-03-13T15:24:38+01:00</time>
      </trkpt>
      <trkpt lat="44.18705" lon="0.80161">
        <ele>147.2</ele>
        <time>2024-03-13T15:24:49+01:00</time>
      </trkpt>
      <trkpt lat="44.18743" lon="0.80206">
        <ele>142.7</ele>
        <time>2024-03-13T15:25:28+01:00</time>
      </trkpt>
      <trkpt lat="44.18752" lon="0.80201">
        <ele>143.7</ele>
        <time>2024-03-13T15:25:38+01:00</time>
      </trkpt>
      <trkpt lat="44.18771" lon="0.80182">
        <ele>142.2</ele>
        <time>2024-03-13T15:25:57+01:00</time>
      </trkpt>
      <trkpt lat="44.18783" lon="0.80186">
        <ele>137.6</ele>
        <time>2024-03-13T15:26:07+01:00</time>
      </trkpt>
      <trkpt lat="44.18786" lon="0.80205">
        <ele>135.8</ele>
        <time>2024-03-13T15:26:16+01:00</time>
      </trkpt>
      <trkpt lat="44.18792" lon="0.80378">
        <ele>122.9</ele>
        <time>2024-03-13T15:27:59+01:00</time>
      </trkpt>
      <trkpt lat="44.18791" lon="0.80387">
        <ele>122.5</ele>
        <time>2024-03-13T15:28:29+01:00</time>
      </trkpt>
      <trkpt lat="44.18775" lon="0.8039">
        <ele>121.3</ele>
        <time>2024-03-13T15:29:19+01:00</time>
      </trkpt>
      <trkpt lat="44.18714" lon="0.80417">
        <ele>105.6</ele>
        <time>2024-03-13T15:30:26+01:00</time>
      </trkpt>
      <trkpt lat="44.18692" lon="0.80422">
        <ele>101.9</ele>
        <time>2024-03-13T15:30:45+01:00</time>
      </trkpt>
      <trkpt lat="44.1868" lon="0.80426">
        <ele>101.1</ele>
        <time>2024-03-13T15:30:54+01:00</time>
      </trkpt>
      <trkpt lat="44.1867" lon="0.80429">
        <ele>100.6</ele>
        <time>2024-03-13T15:31:03+01:00</time>
      </trkpt>
      <trkpt lat="44.18648" lon="0.8044">
        <ele>101.9</ele>
        <time>2024-03-13T15:31:41+01:00</time>
      </trkpt>
      <trkpt lat="44.18627" lon="0.8044">
        <ele>104.1</ele>
        <time>2024-03-13T15:31:59+01:00</time>
      </trkpt>
      <trkpt lat="44.18616" lon="0.80437">
        <ele>105</ele>
        <time>2024-03-13T15:32:10+01:00</time>
      </trkpt>
      <trkpt lat="44.18607" lon="0.80438">
        <ele>106</ele>
        <time>2024-03-13T15:32:19+01:00</time>
      </trkpt>
      <trkpt lat="44.18598" lon="0.80446">
        <ele>107.7</ele>
        <time>2024-03-13T15:32:39+01:00</time>
      </trkpt>
      <trkpt lat="44.18591" lon="0.80454">
        <ele>109.6</ele>
        <time>2024-03-13T15:32:49+01:00</time>
      </trkpt>
      <trkpt lat="44.18582" lon="0.80462">
        <ele>111</ele>
        <time>2024-03-13T15:33:07+01:00</time>
      </trkpt>
      <trkpt lat="44.18538" lon="0.8052">
        <ele>114.2</ele>
        <time>2024-03-13T15:34:14+01:00</time>
      </trkpt>
      <trkpt lat="44.18531" lon="0.80535">
        <ele>115.3</ele>
        <time>2024-03-13T15:34:34+01:00</time>
      </trkpt>
      <trkpt lat="44.18506" lon="0.80567">
        <ele>118.5</ele>
        <time>2024-03-13T15:35:33+01:00</time>
      </trkpt>
      <trkpt lat="44.185" lon="0.80579">
        <ele>119.5</ele>
        <time>2024-03-13T15:35:47+01:00</time>
      </trkpt>
      <trkpt lat="44.18483" lon="0.80603">
        <ele>124</ele>
        <time>2024-03-13T15:36:21+01:00</time>
      </trkpt>
      <trkpt lat="44.18467" lon="0.80621">
        <ele>126.7</ele>
        <time>2024-03-13T15:36:53+01:00</time>
      </trkpt>
      <trkpt lat="44.18458" lon="0.80627">
        <ele>128.6</ele>
        <time>2024-03-13T15:37:08+01:00</time>
      </trkpt>
      <trkpt lat="44.18453" lon="0.80637">
        <ele>129.8</ele>
        <time>2024-03-13T15:37:18+01:00</time>
      </trkpt>
      <trkpt lat="44.18444" lon="0.80645">
        <ele>131.2</ele>
        <time>2024-03-13T15:37:47+01:00</time>
      </trkpt>
      <trkpt lat="44.18433" lon="0.80652">
        <ele>134.3</ele>
        <time>2024-03-13T15:39:07+01:00</time>
      </trkpt>
      <trkpt lat="44.1838" lon="0.8069">
        <ele>142.6</ele>
        <time>2024-03-13T15:40:20+01:00</time>
      </trkpt>
      <trkpt lat="44.18368" lon="0.80694">
        <ele>144</ele>
        <time>2024-03-13T15:40:33+01:00</time>
      </trkpt>
      <trkpt lat="44.18359" lon="0.80699">
        <ele>145.2</ele>
        <time>2024-03-13T15:41:03+01:00</time>
      </trkpt>
      <trkpt lat="44.18333" lon="0.80697">
        <ele>149</ele>
        <time>2024-03-13T15:41:32+01:00</time>
      </trkpt>
      <trkpt lat="44.18323" lon="0.80692">
        <ele>150.2</ele>
        <time>2024-03-13T15:41:46+01:00</time>
      </trkpt>
      <trkpt lat="44.18297" lon="0.80687">
        <ele>152.8</ele>
        <time>2024-03-13T15:42:01+01:00</time>
      </trkpt>
      <trkpt lat="44.18288" lon="0.80684">
        <ele>153.4</ele>
        <time>2024-03-13T15:42:25+01:00</time>
      </trkpt>
      <trkpt lat="44.18257" lon="0.80659">
        <ele>155.5</ele>
        <time>2024-03-13T15:43:45+01:00</time>
      </trkpt>
      <trkpt lat="44.18238" lon="0.80651">
        <ele>156.4</ele>
        <time>2024-03-13T15:44:14+01:00</time>
      </trkpt>
      <trkpt lat="44.1823" lon="0.80642">
        <ele>156.7</ele>
        <time>2024-03-13T15:44:23+01:00</time>
      </trkpt>
      <trkpt lat="44.18218" lon="0.80637">
        <ele>157.2</ele>
        <time>2024-03-13T15:44:33+01:00</time>
      </trkpt>
      <trkpt lat="44.18208" lon="0.80637">
        <ele>157.5</ele>
        <time>2024-03-13T15:44:47+01:00</time>
      </trkpt>
      <trkpt lat="44.18208" lon="0.80632">
        <ele>157.7</ele>
      </trkpt>
      <trkpt lat="44.18198" lon="0.80628">
        <ele>158.2</ele>
        <time>2024-03-13T15:44:57+01:00</time>
      </trkpt>
      <trkpt lat="44.18187" lon="0.80622">
        <ele>158.8</ele>
        <time>2024-03-13T15:45:07+01:00</time>
      </trkpt>
      <trkpt lat="44.18169" lon="0.80616">
        <ele>159.1</ele>
        <time>2024-03-13T15:45:41+01:00</time>
      </trkpt>
      <trkpt lat="44.18147" lon="0.8061">
        <ele>159</ele>
        <time>2024-03-13T15:46:00+01:00</time>
      </trkpt>
      <trkpt lat="44.18133" lon="0.80604">
        <ele>158.6</ele>
        <time>2024-03-13T15:46:10+01:00</time>
      </trkpt>
      <trkpt lat="44.18113" lon="0.80596">
        <ele>158</ele>
        <time>2024-03-13T15:46:29+01:00</time>
      </trkpt>
      <trkpt lat="44.18089" lon="0.80592">
        <ele>157.4</ele>
        <time>2024-03-13T15:46:48+01:00</time>
      </trkpt>
      <trkpt lat="44.18068" lon="0.80585">
        <ele>157</ele>
        <time>2024-03-13T15:47:06+01:00</time>
      </trkpt>
      <trkpt lat="44.18035" lon="0.80577">
        <ele>156</ele>
        <time>2024-03-13T15:47:35+01:00</time>
      </trkpt>
      <trkpt lat="44.18006" lon="0.80565">
        <ele>155.3</ele>
        <time>2024-03-13T15:48:04+01:00</time>
      </trkpt>
      <trkpt lat="44.17996" lon="0.80563">
        <ele>155.4</ele>
        <time>2024-03-13T15:48:14+01:00</time>
      </trkpt>
      <trkpt lat="44.17987" lon="0.80563">
        <ele>155.6</ele>
        <time>2024-03-13T15:48:23+01:00</time>
      </trkpt>
      <trkpt lat="44.17927" lon="0.80548">
        <ele>154.6</ele>
        <time>2024-03-13T15:49:11+01:00</time>
      </trkpt>
      <trkpt lat="44.17916" lon="0.80543">
        <ele>154.5</ele>
        <time>2024-03-13T15:49:21+01:00</time>
      </trkpt>
      <trkpt lat="44.17893" lon="0.8054">
        <ele>154.4</ele>
        <time>2024-03-13T15:49:40+01:00</time>
      </trkpt>
      <trkpt lat="44.17881" lon="0.80536">
        <ele>154.3</ele>
        <time>2024-03-13T15:49:50+01:00</time>
      </trkpt>
      <trkpt lat="44.1787" lon="0.80535">
        <ele>154.2</ele>
        <time>2024-03-13T15:49:59+01:00</time>
      </trkpt>
      <trkpt lat="44.17844" lon="0.80528">
        <ele>154</ele>
        <time>2024-03-13T15:50:19+01:00</time>
      </trkpt>
      <trkpt lat="44.17813" lon="0.80511">
        <ele>154.7</ele>
        <time>2024-03-13T15:50:48+01:00</time>
      </trkpt>
      <trkpt lat="44.17776" lon="0.80477">
        <ele>157.1</ele>
        <time>2024-03-13T15:51:26+01:00</time>
      </trkpt>
      <trkpt lat="44.1774" lon="0.80439">
        <ele>159.9</ele>
        <time>2024-03-13T15:52:20+01:00</time>
      </trkpt>
      <trkpt lat="44.17726" lon="0.80419">
        <ele>159.2</ele>
        <time>2024-03-13T15:52:39+01:00</time>
      </trkpt>
      <trkpt lat="44.17694" lon="0.80385">
        <ele>156</ele>
        <time>2024-03-13T15:53:18+01:00</time>
      </trkpt>
      <trkpt lat="44.17683" lon="0.8037">
        <ele>154.2</ele>
        <time>2024-03-13T15:53:27+01:00</time>
      </trkpt>
      <trkpt lat="44.17667" lon="0.80399">
        <ele>153.4</ele>
        <time>2024-03-13T15:53:52+01:00</time>
      </trkpt>
      <trkpt lat="44.17657" lon="0.80406">
        <ele>152.7</ele>
        <time>2024-03-13T15:54:02+01:00</time>
      </trkpt>
      <trkpt lat="44.1765" lon="0.80421">
        <ele>152.5</ele>
        <time>2024-03-13T15:54:12+01:00</time>
      </trkpt>
      <trkpt lat="44.1764" lon="0.80429">
        <ele>152</ele>
        <time>2024-03-13T15:54:21+01:00</time>
      </trkpt>
      <trkpt lat="44.17605" lon="0.80471">
        <ele>151.5</ele>
        <time>2024-03-13T15:54:59+01:00</time>
      </trkpt>
      <trkpt lat="44.17593" lon="0.80478">
        <ele>151.1</ele>
        <time>2024-03-13T15:55:09+01:00</time>
      </trkpt>
      <trkpt lat="44.17584" lon="0.80488">
        <ele>151.1</ele>
        <time>2024-03-13T15:55:18+01:00</time>
      </trkpt>
      <trkpt lat="44.17575" lon="0.80501">
        <ele>151.2</ele>
        <time>2024-03-13T15:55:28+01:00</time>
      </trkpt>
      <trkpt lat="44.17553" lon="0.80518">
        <ele>150.7</ele>
        <time>2024-03-13T15:55:47+01:00</time>
      </trkpt>
      <trkpt lat="44.17545" lon="0.80526">
        <ele>151</ele>
        <time>2024-03-13T15:55:57+01:00</time>
      </trkpt>
      <trkpt lat="44.17532" lon="0.80531">
        <ele>150.5</ele>
        <time>2024-03-13T15:56:06+01:00</time>
      </trkpt>
      <trkpt lat="44.1751" lon="0.80546">
        <ele>150.4</ele>
        <time>2024-03-13T15:56:26+01:00</time>
      </trkpt>
      <trkpt lat="44.17488" lon="0.80551">
        <ele>150</ele>
        <time>2024-03-13T15:56:46+01:00</time>
      </trkpt>
      <trkpt lat="44.17479" lon="0.80557">
        <ele>150.3</ele>
        <time>2024-03-13T15:56:56+01:00</time>
      </trkpt>
      <trkpt lat="44.17468" lon="0.80556">
        <ele>149.6</ele>
      </trkpt>
      <trkpt lat="44.17468" lon="0.8055">
        <ele>149</ele>
        <time>2024-03-13T15:57:41+01:00</time>
      </trkpt>
      <trkpt lat="44.1746" lon="0.80541">
        <ele>147.3</ele>
        <time>2024-03-13T15:57:51+01:00</time>
      </trkpt>
      <trkpt lat="44.17451" lon="0.80533">
        <ele>145.9</ele>
        <time>2024-03-13T15:58:01+01:00</time>
      </trkpt>
      <trkpt lat="44.17444" lon="0.80521">
        <ele>144.7</ele>
        <time>2024-03-13T15:58:10+01:00</time>
      </trkpt>
      <trkpt lat="44.17434" lon="0.80511">
        <ele>143.5</ele>
        <time>2024-03-13T15:58:20+01:00</time>
      </trkpt>
      <trkpt lat="44.17425" lon="0.80499">
        <ele>141.8</ele>
        <time>2024-03-13T15:58:29+01:00</time>
      </trkpt>
      <trkpt lat="44.17407" lon="0.80483">
        <ele>139.7</ele>
        <time>2024-03-13T15:58:48+01:00</time>
      </trkpt>
      <trkpt lat="44.17383" lon="0.80473">
        <ele>137.7</ele>
        <time>2024-03-13T15:59:13+01:00</time>
      </trkpt>
      <trkpt lat="44.17373" lon="0.80465">
        <ele>138.7</ele>
        <time>2024-03-13T15:59:22+01:00</time>
      </trkpt>
      <trkpt lat="44.17354" lon="0.80453">
        <ele>140.8</ele>
        <time>2024-03-13T15:59:46+01:00</time>
      </trkpt>
      <trkpt lat="44.17336" lon="0.8044">
        <ele>142.9</ele>
        <time>2024-03-13T16:01:50+01:00</time>
      </trkpt>
      <trkpt lat="44.17326" lon="0.80439">
        <ele>143.7</ele>
        <time>2024-03-13T16:02:09+01:00</time>
      </trkpt>
      <trkpt lat="44.17309" lon="0.80427">
        <ele>144.8</ele>
        <time>2024-03-13T16:02:28+01:00</time>
      </trkpt>
      <trkpt lat="44.17288" lon="0.80418">
        <ele>147.6</ele>
        <time>2024-03-13T16:02:52+01:00</time>
      </trkpt>
      <trkpt lat="44.1727" lon="0.80412">
        <ele>150.6</ele>
        <time>2024-03-13T16:03:11+01:00</time>
      </trkpt>
      <trkpt lat="44.1726" lon="0.80407">
        <ele>152.3</ele>
        <time>2024-03-13T16:04:12+01:00</time>
      </trkpt>
      <trkpt lat="44.17231" lon="0.80386">
        <ele>159</ele>
        <time>2024-03-13T16:05:06+01:00</time>
      </trkpt>
      <trkpt lat="44.17224" lon="0.80378">
        <ele>161</ele>
        <time>2024-03-13T16:05:20+01:00</time>
      </trkpt>
      <trkpt lat="44.17218" lon="0.80366">
        <ele>162.4</ele>
        <time>2024-03-13T16:05:40+01:00</time>
      </trkpt>
      <trkpt lat="44.1721" lon="0.80359">
        <ele>163.8</ele>
        <time>2024-03-13T16:05:54+01:00</time>
      </trkpt>
      <trkpt lat="44.17198" lon="0.80336">
        <ele>167.3</ele>
        <time>2024-03-13T16:07:23+01:00</time>
      </trkpt>
      <trkpt lat="44.17195" lon="0.80321">
        <ele>168.3</ele>
        <time>2024-03-13T16:07:37+01:00</time>
      </trkpt>
      <trkpt lat="44.17176" lon="0.80273">
        <ele>173</ele>
        <time>2024-03-13T16:08:20+01:00</time>
      </trkpt>
      <trkpt lat="44.17173" lon="0.80257">
        <ele>173.5</ele>
        <time>2024-03-13T16:08:34+01:00</time>
      </trkpt>
      <trkpt lat="44.17168" lon="0.80242">
        <ele>173.6</ele>
        <time>2024-03-13T16:08:49+01:00</time>
      </trkpt>
      <trkpt lat="44.17164" lon="0.80226">
        <ele>173.2</ele>
      </trkpt>
      <trkpt lat="44.17171" lon="0.80225">
        <ele>172.9</ele>
        <time>2024-03-13T16:09:58+01:00</time>
      </trkpt>
      <trkpt lat="44.17183" lon="0.80224">
        <ele>172.5</ele>
        <time>2024-03-13T16:10:23+01:00</time>
      </trkpt>
      <trkpt lat="44.17191" lon="0.80219">
        <ele>172</ele>
        <time>2024-03-13T16:10:43+01:00</time>
      </trkpt>
      <trkpt lat="44.17199" lon="0.80208">
        <ele>171.3</ele>
        <time>2024-03-13T16:10:52+01:00</time>
      </trkpt>
      <trkpt lat="44.17207" lon="0.80176">
        <ele>170.2</ele>
        <time>2024-03-13T16:11:11+01:00</time>
      </trkpt>
      <trkpt lat="44.17277" lon="0.8003">
        <ele>164.1</ele>
        <time>2024-03-13T16:12:56+01:00</time>
      </trkpt>
      <trkpt lat="44.17286" lon="0.80019">
        <ele>163.4</ele>
        <time>2024-03-13T16:13:21+01:00</time>
      </trkpt>
      <trkpt lat="44.17306" lon="0.79958">
        <ele>159</ele>
        <time>2024-03-13T16:14:18+01:00</time>
      </trkpt>
      <trkpt lat="44.17318" lon="0.79934">
        <ele>157.8</ele>
        <time>2024-03-13T16:14:37+01:00</time>
      </trkpt>
      <trkpt lat="44.17339" lon="0.79861">
        <ele>155.8</ele>
        <time>2024-03-13T16:15:44+01:00</time>
      </trkpt>
      <trkpt lat="44.17338" lon="0.79845">
        <ele>155.2</ele>
        <time>2024-03-13T16:15:53+01:00</time>
      </trkpt>
      <trkpt lat="44.17341" lon="0.79831">
        <ele>154.7</ele>
        <time>2024-03-13T16:16:03+01:00</time>
      </trkpt>
      <trkpt lat="44.17344" lon="0.79783">
        <ele>154.1</ele>
        <time>2024-03-13T16:16:31+01:00</time>
      </trkpt>
      <trkpt lat="44.17347" lon="0.79766">
        <ele>153.8</ele>
        <time>2024-03-13T16:16:42+01:00</time>
      </trkpt>
      <trkpt lat="44.17346" lon="0.79736">
        <ele>153.5</ele>
        <time>2024-03-13T16:17:01+01:00</time>
      </trkpt>
      <trkpt lat="44.17351" lon="0.7972">
        <ele>153.6</ele>
        <time>2024-03-13T16:17:11+01:00</time>
      </trkpt>
      <trkpt lat="44.17353" lon="0.79702">
        <ele>153.7</ele>
        <time>2024-03-13T16:17:25+01:00</time>
      </trkpt>
      <trkpt lat="44.17353" lon="0.79689">
        <ele>153.7</ele>
        <time>2024-03-13T16:17:35+01:00</time>
      </trkpt>
      <trkpt lat="44.1736" lon="0.79674">
        <ele>153.9</ele>
        <time>2024-03-13T16:17:44+01:00</time>
      </trkpt>
      <trkpt lat="44.17368" lon="0.79663">
        <ele>154.1</ele>
        <time>2024-03-13T16:17:54+01:00</time>
      </trkpt>
      <trkpt lat="44.17374" lon="0.7965">
        <ele>154.6</ele>
        <time>2024-03-13T16:18:03+01:00</time>
      </trkpt>
      <trkpt lat="44.17382" lon="0.7963">
        <ele>155.3</ele>
        <time>2024-03-13T16:18:12+01:00</time>
      </trkpt>
      <trkpt lat="44.17386" lon="0.79624">
        <ele>155.5</ele>
        <time>2024-03-13T16:18:57+01:00</time>
      </trkpt>
      <trkpt lat="44.17409" lon="0.79597">
        <ele>156.2</ele>
        <time>2024-03-13T16:57:40+01:00</time>
      </trkpt>
      <trkpt lat="44.17443" lon="0.7957">
        <ele>155.6</ele>
        <time>2024-03-13T16:58:15+01:00</time>
      </trkpt>
      <trkpt lat="44.17466" lon="0.79552">
        <ele>155.4</ele>
        <time>2024-03-13T16:59:10+01:00</time>
      </trkpt>
      <trkpt lat="44.17491" lon="0.79532">
        <ele>155.2</ele>
        <time>2024-03-13T16:59:39+01:00</time>
      </trkpt>
      <trkpt lat="44.1751" lon="0.79512">
        <ele>154.5</ele>
        <time>2024-03-13T17:00:19+01:00</time>
      </trkpt>
      <trkpt lat="44.17532" lon="0.79477">
        <ele>154.7</ele>
        <time>2024-03-13T17:00:33+01:00</time>
      </trkpt>
      <trkpt lat="44.17555" lon="0.79447">
        <ele>154</ele>
        <time>2024-03-13T17:00:57+01:00</time>
      </trkpt>
      <trkpt lat="44.17569" lon="0.79425">
        <ele>154.2</ele>
        <time>2024-03-13T17:03:01+01:00</time>
      </trkpt>
      <trkpt lat="44.17595" lon="0.7939">
        <ele>153.6</ele>
        <time>2024-03-13T17:03:30+01:00</time>
      </trkpt>
      <trkpt lat="44.17616" lon="0.79365">
        <ele>153.7</ele>
        <time>2024-03-13T17:04:03+01:00</time>
      </trkpt>
      <trkpt lat="44.1763" lon="0.79349">
        <ele>153.6</ele>
        <time>2024-03-13T17:04:13+01:00</time>
      </trkpt>
      <trkpt lat="44.17646" lon="0.79327">
        <ele>153.6</ele>
        <time>2024-03-13T17:04:55+01:00</time>
      </trkpt>
      <trkpt lat="44.17666" lon="0.79308">
        <ele>153.9</ele>
        <time>2024-03-13T17:05:47+01:00</time>
      </trkpt>
      <trkpt lat="44.17675" lon="0.7929">
        <ele>153.3</ele>
        <time>2024-03-13T17:05:57+01:00</time>
      </trkpt>
      <trkpt lat="44.1769" lon="0.79271">
        <ele>152.3</ele>
      </trkpt>
      <trkpt lat="44.17703" lon="0.79252">
        <ele>151.1</ele>
        <time>2024-03-13T17:06:55+01:00</time>
      </trkpt>
      <trkpt lat="44.1771" lon="0.79239">
        <ele>148.4</ele>
        <time>2024-03-13T17:07:09+01:00</time>
      </trkpt>
      <trkpt lat="44.17727" lon="0.79217">
        <ele>144.5</ele>
        <time>2024-03-13T17:07:42+01:00</time>
      </trkpt>
      <trkpt lat="44.17736" lon="0.7921">
        <ele>144.3</ele>
        <time>2024-03-13T17:07:52+01:00</time>
      </trkpt>
      <trkpt lat="44.17754" lon="0.79177">
        <ele>143.4</ele>
        <time>2024-03-13T17:08:20+01:00</time>
      </trkpt>
      <trkpt lat="44.17758" lon="0.79166">
        <ele>142.8</ele>
        <time>2024-03-13T17:08:34+01:00</time>
      </trkpt>
      <trkpt lat="44.17764" lon="0.79155">
        <ele>142.5</ele>
        <time>2024-03-13T17:08:43+01:00</time>
      </trkpt>
      <trkpt lat="44.17774" lon="0.79147">
        <ele>143.5</ele>
        <time>2024-03-13T17:08:52+01:00</time>
      </trkpt>
      <trkpt lat="44.17783" lon="0.79142">
        <ele>144.1</ele>
        <time>2024-03-13T17:09:28+01:00</time>
      </trkpt>
      <trkpt lat="44.17817" lon="0.79133">
        <ele>143.4</ele>
        <time>2024-03-13T17:10:06+01:00</time>
      </trkpt>
      <trkpt lat="44.17839" lon="0.7913">
        <ele>142.8</ele>
        <time>2024-03-13T17:10:25+01:00</time>
      </trkpt>
      <trkpt lat="44.17848" lon="0.79127">
        <ele>142.5</ele>
        <time>2024-03-13T17:10:35+01:00</time>
      </trkpt>
      <trkpt lat="44.17859" lon="0.79125">
        <ele>142.1</ele>
        <time>2024-03-13T17:10:45+01:00</time>
      </trkpt>
      <trkpt lat="44.17893" lon="0.79115">
        <ele>140.5</ele>
        <time>2024-03-13T17:11:18+01:00</time>
      </trkpt>
      <trkpt lat="44.17924" lon="0.79098">
        <ele>137.2</ele>
        <time>2024-03-13T17:11:52+01:00</time>
      </trkpt>
      <trkpt lat="44.17933" lon="0.79089">
        <ele>135.9</ele>
        <time>2024-03-13T17:12:38+01:00</time>
      </trkpt>
      <trkpt lat="44.17945" lon="0.79083">
        <ele>133.9</ele>
        <time>2024-03-13T17:12:53+01:00</time>
      </trkpt>
      <trkpt lat="44.17959" lon="0.79083">
        <ele>132.4</ele>
        <time>2024-03-13T17:13:07+01:00</time>
      </trkpt>
      <trkpt lat="44.17978" lon="0.79078">
        <ele>130.7</ele>
        <time>2024-03-13T17:13:26+01:00</time>
      </trkpt>
      <trkpt lat="44.17988" lon="0.7908">
        <ele>130</ele>
        <time>2024-03-13T17:15:01+01:00</time>
      </trkpt>
      <trkpt lat="44.17999" lon="0.7908">
        <ele>129.2</ele>
        <time>2024-03-13T17:15:10+01:00</time>
      </trkpt>
      <trkpt lat="44.18033" lon="0.79099">
        <ele>124.2</ele>
        <time>2024-03-13T17:15:39+01:00</time>
      </trkpt>
      <trkpt lat="44.18044" lon="0.79106">
        <ele>122.3</ele>
        <time>2024-03-13T17:15:49+01:00</time>
      </trkpt>
      <trkpt lat="44.18057" lon="0.79109">
        <ele>120</ele>
        <time>2024-03-13T17:15:58+01:00</time>
      </trkpt>
      <trkpt lat="44.18077" lon="0.79118">
        <ele>116.5</ele>
        <time>2024-03-13T17:16:18+01:00</time>
      </trkpt>
      <trkpt lat="44.18092" lon="0.79118">
        <ele>114.9</ele>
        <time>2024-03-13T17:16:28+01:00</time>
      </trkpt>
      <trkpt lat="44.18098" lon="0.79108">
        <ele>114</ele>
        <time>2024-03-13T17:16:33+01:00</time>
      </trkpt>
      <trkpt lat="44.18105" lon="0.79101">
        <ele>113.3</ele>
        <time>2024-03-13T17:16:43+01:00</time>
      </trkpt>
      <trkpt lat="44.18117" lon="0.79094">
        <ele>111.8</ele>
        <time>2024-03-13T17:16:53+01:00</time>
      </trkpt>
      <trkpt lat="44.18127" lon="0.79083">
        <ele>110.3</ele>
        <time>2024-03-13T17:17:02+01:00</time>
      </trkpt>
      <trkpt lat="44.18137" lon="0.79073">
        <ele>108.5</ele>
        <time>2024-03-13T17:17:12+01:00</time>
      </trkpt>
      <trkpt lat="44.18145" lon="0.79063">
        <ele>107.2</ele>
        <time>2024-03-13T17:17:42+01:00</time>
      </trkpt>
      <trkpt lat="44.18156" lon="0.7906">
        <ele>106.3</ele>
        <time>2024-03-13T17:17:52+01:00</time>
      </trkpt>
      <trkpt lat="44.1818" lon="0.79034">
        <ele>101.7</ele>
        <time>2024-03-13T17:18:11+01:00</time>
      </trkpt>
      <trkpt lat="44.18192" lon="0.79025">
        <ele>99.9</ele>
        <time>2024-03-13T17:18:21+01:00</time>
      </trkpt>
      <trkpt lat="44.18206" lon="0.7902">
        <ele>99.9</ele>
        <time>2024-03-13T17:18:31+01:00</time>
      </trkpt>
      <trkpt lat="44.18255" lon="0.7898">
        <ele>95.1</ele>
        <time>2024-03-13T17:19:10+01:00</time>
      </trkpt>
      <trkpt lat="44.18279" lon="0.78964">
        <ele>94.2</ele>
        <time>2024-03-13T17:19:29+01:00</time>
      </trkpt>
      <trkpt lat="44.1829" lon="0.78952">
        <ele>92.2</ele>
        <time>2024-03-13T17:19:39+01:00</time>
      </trkpt>
      <trkpt lat="44.18303" lon="0.78943">
        <ele>91.5</ele>
        <time>2024-03-13T17:19:48+01:00</time>
      </trkpt>
      <trkpt lat="44.1832" lon="0.78919">
        <ele>87.3</ele>
        <time>2024-03-13T17:20:08+01:00</time>
      </trkpt>
      <trkpt lat="44.18337" lon="0.78894">
        <ele>84</ele>
        <time>2024-03-13T17:20:27+01:00</time>
      </trkpt>
      <trkpt lat="44.18349" lon="0.78887">
        <ele>81.8</ele>
        <time>2024-03-13T17:20:37+01:00</time>
      </trkpt>
      <trkpt lat="44.18358" lon="0.78878">
        <ele>80.7</ele>
        <time>2024-03-13T17:20:47+01:00</time>
      </trkpt>
      <trkpt lat="44.18367" lon="0.78875">
        <ele>79.6</ele>
        <time>2024-03-13T17:21:12+01:00</time>
      </trkpt>
      <trkpt lat="44.18374" lon="0.78864">
        <ele>78.7</ele>
        <time>2024-03-13T17:21:27+01:00</time>
      </trkpt>
      <trkpt lat="44.18383" lon="0.7886">
        <ele>77</ele>
        <time>2024-03-13T17:21:37+01:00</time>
      </trkpt>
      <trkpt lat="44.18394" lon="0.78859">
        <ele>75.6</ele>
        <time>2024-03-13T17:21:47+01:00</time>
      </trkpt>
      <trkpt lat="44.18411" lon="0.78869">
        <ele>74.7</ele>
        <time>2024-03-13T17:22:21+01:00</time>
      </trkpt>
      <trkpt lat="44.18408" lon="0.78883">
        <ele>75.4</ele>
        <time>2024-03-13T14:26:28+01:00</time>
      </trkpt>
      <trkpt lat="44.18408" lon="0.78976">
        <ele>75.6</ele>
        <time>2024-03-13T14:27:22+01:00</time>
      </trkpt>
      <trkpt lat="44.18405" lon="0.7899">
        <ele>76.1</ele>
        <time>2024-03-13T14:27:31+01:00</time>
      </trkpt>
      <trkpt lat="44.1841" lon="0.79022">
        <ele>75.7</ele>
        <time>2024-03-13T14:27:51+01:00</time>
      </trkpt>
      <trkpt lat="44.1841" lon="0.79041">
        <ele>75.8</ele>
        <time>2024-03-13T14:28:01+01:00</time>
      </trkpt>
      <trkpt lat="44.184" lon="0.79115">
        <ele>76.3</ele>
        <time>2024-03-13T14:28:39+01:00</time>
      </trkpt>
      <trkpt lat="44.18415" lon="0.79099">
        <ele>75.1</ele>
        <time>2024-03-13T14:28:53+01:00</time>
      </trkpt>
      <trkpt lat="44.18428" lon="0.79071">
        <ele>75.4</ele>
        <time>2024-03-13T14:29:12+01:00</time>
      </trkpt>
      <trkpt lat="44.1844" lon="0.7904">
        <ele>75.4</ele>
        <time>2024-03-13T14:29:32+01:00</time>
      </trkpt>
      <trkpt lat="44.1845" lon="0.7904">
        <ele>75.5</ele>
        <time>2024-03-13T14:29:42+01:00</time>
      </trkpt>
      <trkpt lat="44.18486" lon="0.79052">
        <ele>75.4</ele>
        <time>2024-03-13T14:31:36+01:00</time>
      </trkpt>
      <trkpt lat="44.18493" lon="0.79064">
        <ele>75.7</ele>
        <time>2024-03-13T14:31:50+01:00</time>
      </trkpt>
      <trkpt lat="44.18503" lon="0.79067">
        <ele>76.4</ele>
        <time>2024-03-13T14:32:05+01:00</time>
      </trkpt>
      <trkpt lat="44.18516" lon="0.79073">
        <ele>79.4</ele>
        <time>2024-03-13T14:32:20+01:00</time>
      </trkpt>
      <trkpt lat="44.18523" lon="0.79082">
        <ele>82.4</ele>
        <time>2024-03-13T14:32:29+01:00</time>
      </trkpt>
      <trkpt lat="44.18531" lon="0.79112">
        <ele>86.9</ele>
        <time>2024-03-13T14:33:38+01:00</time>
      </trkpt>
      <trkpt lat="44.18526" lon="0.79123">
        <ele>87.2</ele>
        <time>2024-03-13T14:33:48+01:00</time>
      </trkpt>
      <trkpt lat="44.18528" lon="0.79159">
        <ele>92.2</ele>
        <time>2024-03-13T14:34:13+01:00</time>
      </trkpt>
      <trkpt lat="44.18531" lon="0.79188">
        <ele>95.7</ele>
        <time>2024-03-13T14:34:33+01:00</time>
      </trkpt>
      <trkpt lat="44.18528" lon="0.79203">
        <ele>96</ele>
        <time>2024-03-13T14:34:42+01:00</time>
      </trkpt>
      <trkpt lat="44.18532" lon="0.79221">
        <ele>99.5</ele>
        <time>2024-03-13T14:34:53+01:00</time>
      </trkpt>
      <trkpt lat="44.18529" lon="0.79253">
        <ele>102</ele>
        <time>2024-03-13T14:35:18+01:00</time>
      </trkpt>
      <trkpt lat="44.18529" lon="0.79266">
        <ele>103.9</ele>
        <time>2024-03-13T14:35:28+01:00</time>
      </trkpt>
      <trkpt lat="44.18526" lon="0.79294">
        <ele>107.5</ele>
        <time>2024-03-13T14:35:56+01:00</time>
      </trkpt>
      <trkpt lat="44.18527" lon="0.79312">
        <ele>110.7</ele>
        <time>2024-03-13T14:36:10+01:00</time>
      </trkpt>
      <trkpt lat="44.18524" lon="0.79353">
        <ele>114.3</ele>
        <time>2024-03-13T14:37:51+01:00</time>
      </trkpt>
      <trkpt lat="44.1854" lon="0.79449">
        <ele>125.2</ele>
        <time>2024-03-13T14:39:07+01:00</time>
      </trkpt>
      <trkpt lat="44.18553" lon="0.79472">
        <ele>132</ele>
        <time>2024-03-13T14:40:10+01:00</time>
      </trkpt>
      <trkpt lat="44.18555" lon="0.79485">
        <ele>132.3</ele>
        <time>2024-03-13T14:40:20+01:00</time>
      </trkpt>
      <trkpt lat="44.1856" lon="0.79498">
        <ele>134.3</ele>
        <time>2024-03-13T14:40:34+01:00</time>
      </trkpt>
      <trkpt lat="44.1856" lon="0.79518">
        <ele>134.5</ele>
        <time>2024-03-13T14:40:48+01:00</time>
      </trkpt>
      <trkpt lat="44.18562" lon="0.79533">
        <ele>135.8</ele>
        <time>2024-03-13T14:40:58+01:00</time>
      </trkpt>
      <trkpt lat="44.18569" lon="0.79548">
        <ele>138.9</ele>
        <time>2024-03-13T14:41:12+01:00</time>
      </trkpt>
      <trkpt lat="44.18569" lon="0.79562">
        <ele>138.8</ele>
        <time>2024-03-13T14:41:22+01:00</time>
      </trkpt>
      <trkpt lat="44.18576" lon="0.79549">
        <ele>142.6</ele>
        <time>2024-03-13T14:42:16+01:00</time>
      </trkpt>
      <trkpt lat="44.18575" lon="0.79529">
        <ele>142.2</ele>
        <time>2024-03-13T14:42:30+01:00</time>
      </trkpt>
      <trkpt lat="44.18576" lon="0.79496">
        <ele>142.4</ele>
        <time>2024-03-13T14:42:50+01:00</time>
      </trkpt>
      <trkpt lat="44.18583" lon="0.79434">
        <ele>147.1</ele>
        <time>2024-03-13T14:43:36+01:00</time>
      </trkpt>
      <trkpt lat="44.18584" lon="0.79376">
        <ele>137</ele>
        <time>2024-03-13T14:44:23+01:00</time>
      </trkpt>
      <trkpt lat="44.18589" lon="0.79363">
        <ele>136.1</ele>
        <time>2024-03-13T14:45:11+01:00</time>
      </trkpt>
      <trkpt lat="44.18599" lon="0.79357">
        <ele>141</ele>
        <time>2024-03-13T14:45:21+01:00</time>
      </trkpt>
      <trkpt lat="44.18604" lon="0.79328">
        <ele>142.7</ele>
        <time>2024-03-13T14:45:39+01:00</time>
      </trkpt>
      <trkpt lat="44.18604" lon="0.79312">
        <ele>142.3</ele>
        <time>2024-03-13T14:45:49+01:00</time>
      </trkpt>
      <trkpt lat="44.18608" lon="0.7928">
        <ele>141.4</ele>
        <time>2024-03-13T14:46:08+01:00</time>
      </trkpt>
      <trkpt lat="44.18615" lon="0.79252">
        <ele>142.1</ele>
        <time>2024-03-13T14:46:28+01:00</time>
      </trkpt>
      <trkpt lat="44.18613" lon="0.79239">
        <ele>140.1</ele>
        <time>2024-03-13T14:46:53+01:00</time>
      </trkpt>
      <trkpt lat="44.18617" lon="0.79226">
        <ele>139.6</ele>
        <time>2024-03-13T14:47:02+01:00</time>
      </trkpt>
      <trkpt lat="44.18628" lon="0.79212">
        <ele>140.8</ele>
        <time>2024-03-13T14:47:11+01:00</time>
      </trkpt>
      <trkpt lat="44.18638" lon="0.79207">
        <ele>142.8</ele>
        <time>2024-03-13T14:47:20+01:00</time>
      </trkpt>
      <trkpt lat="44.18648" lon="0.79206">
        <ele>143.1</ele>
        <time>2024-03-13T14:47:30+01:00</time>
      </trkpt>
      <trkpt lat="44.1866" lon="0.79181">
        <ele>133.6</ele>
        <time>2024-03-13T14:48:48+01:00</time>
      </trkpt>
      <trkpt lat="44.18673" lon="0.79173">
        <ele>130</ele>
        <time>2024-03-13T14:48:58+01:00</time>
      </trkpt>
      <trkpt lat="44.18686" lon="0.79168">
        <ele>128.4</ele>
        <time>2024-03-13T14:49:22+01:00</time>
      </trkpt>
      <trkpt lat="44.1871" lon="0.79171">
        <ele>130.1</ele>
        <time>2024-03-13T14:49:55+01:00</time>
      </trkpt>
      <trkpt lat="44.18719" lon="0.79176">
        <ele>132.2</ele>
        <time>2024-03-13T14:50:04+01:00</time>
      </trkpt>
      <trkpt lat="44.18728" lon="0.79175">
        <ele>133.1</ele>
        <time>2024-03-13T14:50:14+01:00</time>
      </trkpt>
      <trkpt lat="44.18737" lon="0.79179">
        <ele>135.7</ele>
        <time>2024-03-13T14:50:38+01:00</time>
      </trkpt>
      <trkpt lat="44.18747" lon="0.79179">
        <ele>137.3</ele>
        <time>2024-03-13T14:50:48+01:00</time>
      </trkpt>
      <trkpt lat="44.18755" lon="0.79176">
        <ele>137.1</ele>
        <time>2024-03-13T14:50:57+01:00</time>
      </trkpt>
      <trkpt lat="44.18763" lon="0.79177">
        <ele>137.9</ele>
        <time>2024-03-13T14:51:12+01:00</time>
      </trkpt>
      <trkpt lat="44.18765" lon="0.79204">
        <ele>144.4</ele>
        <time>2024-03-13T15:01:29+01:00</time>
      </trkpt>
      <trkpt lat="44.18772" lon="0.79223">
        <ele>147</ele>
        <time>2024-03-13T15:01:43+01:00</time>
      </trkpt>
      <trkpt lat="44.18759" lon="0.7935">
        <ele>153.9</ele>
      </trkpt>
      <trkpt lat="44.18753" lon="0.79434">
        <ele>158.2</ele>
        <time>2024-03-13T15:04:47+01:00</time>
      </trkpt>
      <trkpt lat="44.1874" lon="0.79431">
        <ele>158.9</ele>
        <time>2024-03-13T15:05:07+01:00</time>
      </trkpt>
      <trkpt lat="44.1872" lon="0.79422">
        <ele>159.3</ele>
        <time>2024-03-13T15:05:50+01:00</time>
      </trkpt>
      <trkpt lat="44.18699" lon="0.79559">
        <ele>161</ele>
        <time>2024-03-13T15:08:54+01:00</time>
      </trkpt>
      <trkpt lat="44.18699" lon="0.79576">
        <ele>160.9</ele>
        <time>2024-03-13T15:09:09+01:00</time>
      </trkpt>
      <trkpt lat="44.18695" lon="0.79589">
        <ele>160.8</ele>
        <time>2024-03-13T15:09:23+01:00</time>
      </trkpt>
      <trkpt lat="44.1869" lon="0.796">
        <ele>160.2</ele>
        <time>2024-03-13T15:09:37+01:00</time>
      </trkpt>
    </trkseg>
  </trk>
</gpx>